AirNav   Everest Fuels
 
 1520 users online  

37WI Docken Field Airport
Mount Horeb, Wisconsin, USA

GOING TO MOUNT HOREB?


FAA INFORMATION EFFECTIVE 13 AUGUST 2020

Location

FAA Identifier: 37WI
Lat/Long: 42-59-27.9900N 089-45-12.4420W
42-59.466500N 089-45.207367W
42.9911083,-89.7534561
(estimated)
Elevation: 1230 ft. / 375 m (estimated)
Variation: 00E (1985)
From city: 2 miles SW of MOUNT HOREB, WI
Time zone: UTC -5 (UTC -6 during Standard Time)
Zip code: 53572

Airport Operations

Airport use: Private use. Permission required prior to landing
Activation date: 11/1978
Control tower: no
ARTCC: CHICAGO CENTER
FSS: GREEN BAY FLIGHT SERVICE STATION
Attendance: UNATNDD
Segmented circle: no

Airport Communications

WX AWOS-3 at C29 (12 nm NE): 118.675 (608-833-1686)

Nearby radio navigation aids

VOR radial/distance  VOR name  Freq  Var
MSNr240/20.3MADISON VORTAC108.6003E
LNRr138/24.6LONE ROCK VOR/DME112.8000E
DLLr176/33.6DELLS VORTAC117.0003E
JVLr309/38.6JANESVILLE VOR/DME114.3003E

Airport Services

Runway Information

Runway 15/33

Dimensions: 1800 x 75 ft. / 549 x 23 m
Surface: turf
RUNWAY 15  RUNWAY 33
Traffic pattern: leftleft

Airport Ownership and Management from official FAA records

Ownership: Privately-owned
Owner: ORVILLE DOCKEN
2513 SAND ROCK RD RT 2
MOUNT HOREB, WI 53572
Phone 608-437-3120
Manager: ORVILLE DOCKEN
2513 SAND ROCK RD RT 2
MOUNT HOREB, WI 53572
Phone 608-437-3120

Airport Operational Statistics

Aircraft based on the field: 1
Single engine airplanes: 1
    

Additional Remarks

FOR CD CTC CHICAGO ARTCC AT 630-906-8921.

Instrument Procedures

There are no published instrument procedures at 37WI.

Some nearby airports with instrument procedures:

C29 - Middleton Municipal Airport - Morey Field (12 nm NE)
91C - Sauk-Prairie Airport (18 nm N)
KMSN - Dane County Regional Airport-Truax Field (20 nm NE)
KMRJ - Iowa County Airport (22 nm W)
KLNR - Tri-County Regional Airport (23 nm NW)
 
Loc | Ops | Rwys | IFR | FBO | Links
Com | Nav | Svcs | Stats | Notes
Area around 37WI (Docken Field Airport)
 
Road maps at: MapQuest Bing Google
 
Aerial photo
No photo
 
Sectional chart

 
Airport distance calculator
Flying to Docken Field Airport? Find the distance to fly.

From to 37WI

Sunrise and sunset
Times for 13-Aug-2020
 Local
(UTC-5)
 Zulu
(UTC)
Morning civil twilight05:3410:34
Sunrise06:0511:05
Sunset20:0301:03
Evening civil twilight20:3301:33

Current date and time
Zulu (UTC)  13-Aug-2020 16:45:33
Local (UTC-5)  13-Aug-2020 11:45:33
 
METAR
KC29 
12nm NE 
131635Z AUTO 11007KT 10SM CLR 27/17 A3014 RMK AO1 T02710173
KMSN 
20nm NE 
131553Z 12008KT 10SM FEW030 FEW150 BKN250 26/18 A3014 RMK AO2 SLP200 T02560183
KMRJ 
21nm W 
131635Z AUTO 14006KT 10SM SCT027 26/18 A3014 RMK AO2
KLNR 
23nm NW 
131556Z AUTO 09007KT 10SM CLR 26/19 A3012 RMK AO2 SLP192 T02610194
TAF
KMSN 
20nm NE 
131510Z 1315/1412 14008KT P6SM FEW050 SCT200 FM140200 VRB03KT P6SM FEW250
NOTAMs
Click for the latest NOTAMs
NOTAMs are issued by the DoD/FAA and will open in a separate window not controlled by AirNav.

 

 
 

Would you like to see your business listed on this page?

 If your business provides an interesting product or service to pilots, flight crews, aircraft, or users of the Docken Field Airport, you should consider listing it here.  To start the listing process, click on the button below
 
Add a business
 

Other Pages about Docken Field Airport

Update a link
 
Copyright © AirNav, LLC. All rights reserved. Privacy Policy  Contact